createdAt,value
2017-04-20T00:00:07.120Z,3.3
2017-04-20T00:01:09.246Z,3.2
2017-04-20T00:02:11.171Z,3.2
2017-04-20T00:03:12.962Z,3.3
2017-04-20T00:04:14.750Z,3.1
2017-04-20T00:05:16.543Z,3.2
2017-04-20T00:06:18.332Z,3.2
2017-04-20T00:07:20.123Z,3.2
2017-04-20T00:08:21.916Z,3.3
2017-04-20T00:09:24.053Z,3.3
2017-04-20T00:10:25.845Z,3.2
2017-04-20T00:11:27.976Z,3.1
2017-04-20T00:12:29.767Z,3
2017-04-20T00:13:32.252Z,2.9
2017-04-20T00:14:34.665Z,3
2017-04-20T00:15:36.457Z,3
2017-04-20T00:16:38.240Z,2.9
2017-04-20T00:17:40.037Z,3.1
2017-04-20T00:18:41.826Z,3
2017-04-20T00:19:43.618Z,3.1
2017-04-20T00:20:45.402Z,3
2017-04-20T00:21:47.196Z,3
2017-04-20T00:22:48.990Z,3
2017-04-20T00:23:51.118Z,3.1
2017-04-20T00:24:53.248Z,3.1
2017-04-20T00:25:55.038Z,3
2017-04-20T00:26:56.948Z,3.1
2017-04-20T00:27:58.743Z,3.1
2017-04-20T00:29:00.535Z,3
2017-04-20T00:30:02.326Z,3
2017-04-20T00:31:04.114Z,2.9
2017-04-20T00:32:05.907Z,2.9
2017-04-20T00:33:07.698Z,2.9
2017-04-20T00:34:09.494Z,2.9
2017-04-20T00:35:11.281Z,2.8
2017-04-20T00:36:13.071Z,2.9
2017-04-20T00:37:14.861Z,2.8
2017-04-20T00:38:16.664Z,2.8
2017-04-20T00:39:18.489Z,3
2017-04-20T00:40:20.278Z,2.9
2017-04-20T00:41:22.403Z,2.7
2017-04-20T00:42:24.199Z,2.8
2017-04-20T00:43:26.325Z,2.9
2017-04-20T00:44:28.120Z,3
2017-04-20T00:45:29.908Z,3
2017-04-20T00:46:31.704Z,2.8
2017-04-20T00:47:33.496Z,2.7
2017-04-20T00:48:35.285Z,2.6
2017-04-20T00:49:37.073Z,2.7
2017-04-20T00:50:38.869Z,2.7
2017-04-20T00:51:40.741Z,2.8
2017-04-20T00:52:42.541Z,2.9
2017-04-20T00:53:44.737Z,2.9
2017-04-20T00:54:46.527Z,3.2
2017-04-20T00:55:48.334Z,3.1
2017-04-20T00:56:50.462Z,2.9
2017-04-20T00:57:52.250Z,2.7
2017-04-20T00:58:54.045Z,2.6
2017-04-20T00:59:55.835Z,2.8
2017-04-20T01:00:57.645Z,3
2017-04-20T01:01:59.429Z,2.9
2017-04-20T01:03:01.221Z,2.8
2017-04-20T01:04:03.010Z,2.7
2017-04-20T01:05:04.804Z,3
2017-04-20T01:06:06.598Z,3
2017-04-20T01:07:08.723Z,3.2
2017-04-20T01:08:10.513Z,3.1
2017-04-20T01:09:12.305Z,2.9
2017-04-20T01:10:14.098Z,2.8
2017-04-20T01:11:15.885Z,2.9
2017-04-20T01:12:17.676Z,3.1
2017-04-20T01:13:19.816Z,3.3
2017-04-20T01:14:21.607Z,3.1
2017-04-20T01:15:23.397Z,3.1
2017-04-20T01:16:25.409Z,3.1
2017-04-20T01:17:27.199Z,2.9
2017-04-20T01:18:28.992Z,2.8
2017-04-20T01:19:31.129Z,2.9
2017-04-20T01:20:32.917Z,2.9
2017-04-20T01:21:34.703Z,3
2017-04-20T01:22:36.499Z,3
2017-04-20T01:23:38.288Z,2.9
2017-04-20T01:24:40.081Z,2.7
2017-04-20T01:25:42.206Z,2.6
2017-04-20T01:26:44.333Z,2.9
2017-04-20T01:27:46.130Z,2.8
2017-04-20T01:28:48.375Z,2.8
2017-04-20T01:29:50.166Z,3
2017-04-20T01:30:51.955Z,2.8
2017-04-20T01:31:53.751Z,2.5
2017-04-20T01:32:55.541Z,2.9
2017-04-20T01:33:57.329Z,2.7
2017-04-20T01:34:59.123Z,2.5
2017-04-20T01:36:00.914Z,2.6
2017-04-20T01:37:02.705Z,2.7
2017-04-20T01:38:04.498Z,2.7
2017-04-20T01:39:06.286Z,2.7
2017-04-20T01:40:08.077Z,2.5
2017-04-20T01:41:10.157Z,2.6
2017-04-20T01:42:12.107Z,2.5
2017-04-20T01:43:13.890Z,2.7
2017-04-20T01:44:15.684Z,2.4
2017-04-20T01:45:17.475Z,2.4
2017-04-20T01:46:19.265Z,2.6
2017-04-20T01:47:21.062Z,2.6
2017-04-20T01:48:22.855Z,2.6
2017-04-20T01:49:24.647Z,2.7
2017-04-20T01:50:26.441Z,2.8
2017-04-20T01:51:28.229Z,2.7
2017-04-20T01:52:30.033Z,2.7
2017-04-20T01:53:32.591Z,2.9
2017-04-20T01:54:34.423Z,2.9
2017-04-20T01:55:36.546Z,2.9
2017-04-20T01:56:38.336Z,2.8
2017-04-20T01:57:40.465Z,2.7
2017-04-20T01:58:42.599Z,2.9
2017-04-20T01:59:44.392Z,2.8
2017-04-20T02:00:46.182Z,2.8
2017-04-20T02:01:47.970Z,2.6
2017-04-20T02:02:50.096Z,2.5
2017-04-20T02:03:51.890Z,2.6
2017-04-20T02:04:53.684Z,2.6
2017-04-20T02:05:55.739Z,2.6
2017-04-20T02:06:57.549Z,2.6
2017-04-20T02:07:59.339Z,2.6
2017-04-20T02:09:01.132Z,2.4
2017-04-20T02:10:02.918Z,2.5
2017-04-20T02:11:04.709Z,2.5
2017-04-20T02:12:06.497Z,2.6
2017-04-20T02:13:08.295Z,2.7
2017-04-20T02:14:10.426Z,2.7
2017-04-20T02:15:12.216Z,2.8
2017-04-20T02:16:14.342Z,2.8
2017-04-20T02:17:16.228Z,2.7
2017-04-20T02:18:18.524Z,2.5
2017-04-20T02:19:20.317Z,2.5
2017-04-20T02:20:22.111Z,2.6
2017-04-20T02:21:23.910Z,2.6
2017-04-20T02:22:25.700Z,2.6
2017-04-20T02:23:27.495Z,2.7
2017-04-20T02:24:29.278Z,2.6
2017-04-20T02:25:31.069Z,2.6
2017-04-20T02:26:32.858Z,2.6
2017-04-20T02:27:34.988Z,2.6
2017-04-20T02:28:36.780Z,2.5
2017-04-20T02:29:38.788Z,2.6
2017-04-20T02:30:40.581Z,2.4
2017-04-20T02:31:42.394Z,2.4
2017-04-20T02:32:44.182Z,2.5
2017-04-20T02:33:45.978Z,2.7
2017-04-20T02:34:47.771Z,2.5
2017-04-20T02:35:49.565Z,2.6
2017-04-20T02:36:51.356Z,2.6
2017-04-20T02:37:53.143Z,2.8
2017-04-20T02:38:55.281Z,2.8
2017-04-20T02:39:57.420Z,2.7
2017-04-20T02:40:59.293Z,2.6
2017-04-20T02:42:01.082Z,2.5
2017-04-20T02:43:02.867Z,2.8
2017-04-20T02:44:04.660Z,2.5
2017-04-20T02:45:06.451Z,2.4
2017-04-20T02:46:08.248Z,2.4
2017-04-20T02:47:10.036Z,2.8
2017-04-20T02:48:11.828Z,2.5
2017-04-20T02:49:13.624Z,2.6
2017-04-20T02:50:15.418Z,2.8
2017-04-20T02:51:17.208Z,2.7
2017-04-20T02:52:19.346Z,2.6
2017-04-20T02:53:21.844Z,2.8
2017-04-20T02:54:23.987Z,2.6
2017-04-20T02:55:25.778Z,2.6
2017-04-20T02:56:27.568Z,2.4
2017-04-20T02:57:29.360Z,2.6
2017-04-20T02:58:31.151Z,2.5
2017-04-20T02:59:32.945Z,2.6
2017-04-20T03:00:34.735Z,2.5
2017-04-20T03:01:36.859Z,2.6
2017-04-20T03:02:39.003Z,2.7
2017-04-20T03:03:40.794Z,2.5
2017-04-20T03:04:42.746Z,2.7
2017-04-20T03:05:44.530Z,2.6
2017-04-20T03:06:46.322Z,2.5
2017-04-20T03:07:48.114Z,2.7
2017-04-20T03:08:50.243Z,2.5
2017-04-20T03:09:52.032Z,2.5
2017-04-20T03:10:54.168Z,2.8
2017-04-20T03:11:55.961Z,2.9
2017-04-20T03:12:57.757Z,2.6
2017-04-20T03:13:59.549Z,2.4
2017-04-20T03:15:01.343Z,2.4
2017-04-20T03:16:03.469Z,2.3
2017-04-20T03:17:05.558Z,2.4
2017-04-20T03:18:07.352Z,2.6
2017-04-20T03:19:09.491Z,2.4
2017-04-20T03:20:11.281Z,2.5
2017-04-20T03:21:13.071Z,2.5
2017-04-20T03:22:14.861Z,2.5
2017-04-20T03:23:16.651Z,2.6
2017-04-20T03:24:18.435Z,2.6
2017-04-20T03:25:20.225Z,2.5
2017-04-20T03:26:22.014Z,2.7
2017-04-20T03:27:23.809Z,2.5
2017-04-20T03:28:25.628Z,2.3
2017-04-20T03:29:27.421Z,2.6
2017-04-20T03:30:29.215Z,2.4
2017-04-20T03:31:31.006Z,2.3
2017-04-20T03:32:32.802Z,2.7
2017-04-20T03:33:34.597Z,2.7
2017-04-20T03:34:36.383Z,2.6
2017-04-20T03:35:38.516Z,2.6
2017-04-20T03:36:40.306Z,2.7
2017-04-20T03:37:42.094Z,2.7
2017-04-20T03:38:44.223Z,2.4
2017-04-20T03:39:46.452Z,2.7
2017-04-20T03:40:48.241Z,2.8
2017-04-20T03:41:50.029Z,2.4
2017-04-20T03:42:52.160Z,2.4
2017-04-20T03:43:53.945Z,2.3
2017-04-20T03:44:56.075Z,2.5
2017-04-20T03:45:58.207Z,2.6
2017-04-20T03:46:59.992Z,2.4
2017-04-20T03:48:01.784Z,2.5
2017-04-20T03:49:03.576Z,2.6
2017-04-20T03:50:05.368Z,2.6
2017-04-20T03:51:07.215Z,2.6
2017-04-20T03:52:09.603Z,2.6
2017-04-20T03:53:11.396Z,2.5
2017-04-20T03:54:13.523Z,2.9
2017-04-20T03:55:15.317Z,2.8
2017-04-20T03:56:17.107Z,2.7
2017-04-20T03:57:18.899Z,2.7
2017-04-20T03:58:21.029Z,2.7
2017-04-20T03:59:23.156Z,2.5
2017-04-20T04:00:25.278Z,2.9
2017-04-20T04:01:27.066Z,2.6
2017-04-20T04:02:28.855Z,2.8
2017-04-20T04:03:31.176Z,2.4
2017-04-20T04:04:32.967Z,2.9
2017-04-20T04:05:34.757Z,2.7
2017-04-20T04:06:36.543Z,2.9
2017-04-20T04:07:38.338Z,2.7
2017-04-20T04:08:40.474Z,2.6
2017-04-20T04:09:42.267Z,2.5
2017-04-20T04:10:44.060Z,2.6
2017-04-20T04:11:45.854Z,2.5
2017-04-20T04:12:47.986Z,2.6
2017-04-20T04:13:50.118Z,2.5
2017-04-20T04:14:52.077Z,2.5
2017-04-20T04:15:54.204Z,2.2
2017-04-20T04:16:55.999Z,2.8
2017-04-20T04:17:57.787Z,2.7
2017-04-20T04:18:59.578Z,2.8
2017-04-20T04:20:01.372Z,2.9
2017-04-20T04:21:03.157Z,2.8
2017-04-20T04:22:05.282Z,2.9
2017-04-20T04:23:07.072Z,3.1
2017-04-20T04:24:08.860Z,3.2
2017-04-20T04:25:10.991Z,3.1
2017-04-20T04:26:12.901Z,2.9
2017-04-20T04:27:14.694Z,2.8
2017-04-20T04:28:16.482Z,2.9
2017-04-20T04:29:18.279Z,3.1
2017-04-20T04:30:20.066Z,2.9
2017-04-20T04:31:21.855Z,3
2017-04-20T04:32:23.648Z,3.2
2017-04-20T04:33:25.441Z,3.3
2017-04-20T04:34:27.233Z,3
2017-04-20T04:35:29.023Z,3.4
2017-04-20T04:36:31.154Z,3.5
2017-04-20T04:37:33.117Z,3.4
2017-04-20T04:38:34.962Z,3.3
2017-04-20T04:39:36.759Z,3.3
2017-04-20T04:40:38.549Z,3.4
2017-04-20T04:41:40.344Z,3.2
2017-04-20T04:42:42.130Z,3.6
2017-04-20T04:43:43.919Z,3.6
2017-04-20T04:44:45.711Z,3.7
2017-04-20T04:45:47.494Z,3.6
2017-04-20T04:46:49.291Z,3.5
2017-04-20T04:47:51.104Z,3.8
2017-04-20T04:48:53.176Z,3.6
2017-04-20T04:49:54.963Z,3.2
2017-04-20T04:50:56.759Z,3.7
2017-04-20T04:51:58.548Z,3.4
2017-04-20T04:53:00.677Z,3.6
2017-04-20T04:54:02.470Z,3.8
2017-04-20T04:55:04.264Z,3.9
2017-04-20T04:56:06.403Z,3.8
2017-04-20T04:57:08.191Z,3.6
2017-04-20T04:58:09.987Z,3.6
2017-04-20T04:59:11.786Z,3.7
2017-04-20T05:00:13.860Z,3.9
2017-04-20T05:01:15.685Z,3.9
2017-04-20T05:02:17.478Z,3.8
2017-04-20T05:03:19.618Z,3.9
2017-04-20T05:04:21.430Z,4.1
2017-04-20T05:05:23.222Z,3.6
2017-04-20T05:06:25.016Z,3.6
2017-04-20T05:07:27.149Z,3.6
2017-04-20T05:08:29.313Z,3.6
2017-04-20T05:09:31.098Z,3.7
2017-04-20T05:10:32.890Z,3.6
2017-04-20T05:11:34.973Z,3.6
2017-04-20T05:12:36.766Z,3.7
2017-04-20T05:13:38.553Z,3.8
2017-04-20T05:14:40.342Z,4.1
2017-04-20T05:15:42.132Z,3.9
2017-04-20T05:16:43.925Z,4
2017-04-20T05:17:45.714Z,4
2017-04-20T05:18:47.504Z,3.7
2017-04-20T05:19:49.301Z,4
2017-04-20T05:20:51.095Z,4
2017-04-20T05:21:52.922Z,4
2017-04-20T05:22:54.711Z,3.9
2017-04-20T05:23:56.755Z,3.9
2017-04-20T05:24:58.544Z,4.1
2017-04-20T05:26:00.336Z,4.2
2017-04-20T05:27:02.132Z,4.3
2017-04-20T05:28:03.929Z,4.2
2017-04-20T05:29:05.723Z,4.3
2017-04-20T05:30:07.518Z,4.2
2017-04-20T05:31:09.303Z,4.1
2017-04-20T05:32:11.098Z,4
2017-04-20T05:33:12.894Z,4.2
2017-04-20T05:34:14.947Z,4.3
2017-04-20T05:35:16.743Z,4.2
2017-04-20T05:36:18.538Z,4.3
2017-04-20T05:37:20.327Z,4.4
2017-04-20T05:38:22.455Z,4.5
2017-04-20T05:39:24.249Z,4.5
2017-04-20T05:40:26.038Z,4.5
2017-04-20T05:41:27.831Z,4.5
2017-04-20T05:42:29.629Z,4.7
2017-04-20T05:43:31.429Z,4.6
2017-04-20T05:44:33.223Z,4.6
2017-04-20T05:45:35.606Z,4.6
2017-04-20T05:46:37.733Z,4.7
2017-04-20T05:47:39.866Z,4.6
2017-04-20T05:48:41.664Z,4.6
2017-04-20T05:49:43.461Z,4.7
2017-04-20T05:50:45.251Z,4.6
2017-04-20T05:51:47.381Z,5
2017-04-20T05:52:49.172Z,5
2017-04-20T05:53:51.303Z,4.9
2017-04-20T05:54:53.090Z,4.9
2017-04-20T05:55:54.884Z,5.1
2017-04-20T05:56:56.822Z,5.2
2017-04-20T05:57:58.741Z,5.3
2017-04-20T05:59:00.677Z,5.4
2017-04-20T06:00:02.470Z,5.6
2017-04-20T06:01:04.270Z,5.5
2017-04-20T06:02:06.066Z,5.6
2017-04-20T06:03:07.858Z,5.5
2017-04-20T06:04:09.649Z,5.4
2017-04-20T06:05:11.780Z,5.5
2017-04-20T06:06:13.574Z,5.6
2017-04-20T06:07:15.363Z,5.6
2017-04-20T06:08:17.223Z,5.5
2017-04-20T06:09:19.502Z,5.5
2017-04-20T06:10:21.293Z,5.7
2017-04-20T06:11:23.429Z,5.6
2017-04-20T06:12:25.218Z,5.5
2017-04-20T06:13:27.013Z,5.5
2017-04-20T06:14:28.802Z,5.8
2017-04-20T06:15:30.946Z,5.8
2017-04-20T06:16:32.737Z,5.8
2017-04-20T06:17:34.532Z,5.8
2017-04-20T06:18:36.328Z,5.9
2017-04-20T06:19:38.676Z,5.9
2017-04-20T06:20:40.559Z,5.8
2017-04-20T06:21:42.353Z,6
2017-04-20T06:22:44.173Z,5.9
2017-04-20T06:23:45.964Z,6.3
2017-04-20T06:24:47.773Z,6.3
2017-04-20T06:25:49.566Z,6
2017-04-20T06:26:51.361Z,6.2
2017-04-20T06:27:53.161Z,6.3
2017-04-20T06:28:54.952Z,6.5
2017-04-20T06:29:56.748Z,6.5
2017-04-20T06:30:58.792Z,6.6
2017-04-20T06:32:00.963Z,6.7
2017-04-20T06:33:02.766Z,6.7
2017-04-20T06:34:04.560Z,7.2
2017-04-20T06:35:06.707Z,7.1
2017-04-20T06:36:08.837Z,7.3
2017-04-20T06:37:10.633Z,7.3
2017-04-20T06:38:12.429Z,7.2
2017-04-20T06:39:14.563Z,7.8
2017-04-20T06:40:16.361Z,7.7
2017-04-20T06:41:18.311Z,7.7
2017-04-20T06:42:20.525Z,7.7
2017-04-20T06:43:22.320Z,7.8
2017-04-20T06:44:24.116Z,7.6
2017-04-20T06:45:25.908Z,7.6
2017-04-20T06:46:28.047Z,7.6
2017-04-20T06:47:29.841Z,7.6
2017-04-20T06:48:31.638Z,7.8
2017-04-20T06:49:33.433Z,7.7
2017-04-20T06:50:35.225Z,7.6
2017-04-20T06:51:37.019Z,7.6
2017-04-20T06:52:38.886Z,7.9
2017-04-20T06:53:40.678Z,8
2017-04-20T06:54:42.814Z,8.1
2017-04-20T06:55:44.610Z,8
2017-04-20T06:56:46.408Z,8
2017-04-20T06:57:48.204Z,8
2017-04-20T06:58:49.999Z,8.1
2017-04-20T06:59:51.801Z,8
2017-04-20T07:00:53.599Z,8
2017-04-20T07:01:55.402Z,7.7
2017-04-20T07:02:57.261Z,8.1
2017-04-20T07:03:59.165Z,8
2017-04-20T07:05:00.960Z,8.2
2017-04-20T07:06:03.432Z,7.8
2017-04-20T07:07:05.223Z,7.8
2017-04-20T07:08:07.024Z,7.9
2017-04-20T07:09:08.830Z,8
2017-04-20T07:10:10.654Z,8.1
2017-04-20T07:11:12.467Z,8.4
2017-04-20T07:12:14.278Z,8.6
2017-04-20T07:13:16.072Z,8.3
2017-04-20T07:14:17.891Z,8.4
2017-04-20T07:15:19.833Z,8.6
2017-04-20T07:16:21.633Z,8.6
2017-04-20T07:17:23.435Z,8.7
2017-04-20T07:18:25.236Z,8.9
2017-04-20T07:19:27.380Z,8.3
2017-04-20T07:20:29.181Z,8.3
2017-04-20T07:21:31.317Z,8.1
2017-04-20T07:22:33.115Z,8.2
2017-04-20T07:23:34.913Z,8.5
2017-04-20T07:24:36.711Z,9.2
2017-04-20T07:25:38.902Z,8.9
2017-04-20T07:26:40.702Z,8.9
2017-04-20T07:27:42.502Z,9
2017-04-20T07:28:44.294Z,8.9
2017-04-20T07:29:46.089Z,9.4
2017-04-20T07:30:47.885Z,9.3
2017-04-20T07:31:49.687Z,9.1
2017-04-20T07:32:51.484Z,9.1
2017-04-20T07:33:53.282Z,8.9
2017-04-20T07:34:55.075Z,8.9
2017-04-20T07:35:56.879Z,9.1
2017-04-20T07:36:58.741Z,9.3
2017-04-20T07:38:00.780Z,9
2017-04-20T07:39:02.580Z,9.2
2017-04-20T07:40:04.383Z,9.4
2017-04-20T07:41:06.183Z,9.3
2017-04-20T07:42:07.993Z,9.3
2017-04-20T07:43:09.791Z,9.8
2017-04-20T07:44:11.938Z,9.8
2017-04-20T07:45:13.735Z,9.8
2017-04-20T07:46:15.874Z,9.9
2017-04-20T07:47:18.019Z,9.9
2017-04-20T07:48:20.161Z,9.9
2017-04-20T07:49:21.960Z,9.3
2017-04-20T07:50:23.764Z,10
2017-04-20T07:51:25.564Z,10.3
2017-04-20T07:52:27.367Z,10.3
2017-04-20T07:53:29.171Z,10.5
2017-04-20T07:54:31.313Z,10.5
2017-04-20T07:55:33.114Z,10.6
2017-04-20T07:56:34.963Z,10.6
2017-04-20T07:57:37.229Z,10.8
2017-04-20T07:58:39.441Z,10.2
2017-04-20T07:59:42.385Z,10
2017-04-20T08:00:46.227Z,10
2017-04-20T08:01:48.026Z,10.3
2017-04-20T08:02:49.857Z,10.2
2017-04-20T08:03:52.220Z,10.3
2017-04-20T08:04:54.018Z,10.3
2017-04-20T08:05:55.821Z,10.7
2017-04-20T08:06:57.623Z,10.7
2017-04-20T08:07:59.544Z,10.7
2017-04-20T08:09:01.353Z,10.3
2017-04-20T08:10:03.646Z,10.3
2017-04-20T08:11:05.534Z,10.5
2017-04-20T08:12:07.741Z,10.9
2017-04-20T08:13:09.543Z,10.7
2017-04-20T08:14:11.341Z,11
2017-04-20T08:15:13.163Z,11.1
2017-04-20T08:16:14.960Z,10.6
2017-04-20T08:17:16.769Z,10.6
2017-04-20T08:18:18.573Z,10.6
2017-04-20T08:19:20.477Z,10.6
2017-04-20T08:20:22.275Z,10.8
2017-04-20T08:21:24.078Z,11.2
2017-04-20T08:22:25.882Z,11.4
2017-04-20T08:23:28.041Z,11.5
2017-04-20T08:24:29.849Z,11.4
2017-04-20T08:25:32.033Z,12.1
2017-04-20T08:26:33.860Z,11.7
2017-04-20T08:27:35.665Z,11.7
2017-04-20T08:28:37.835Z,11.7
2017-04-20T08:29:39.635Z,11.9
2017-04-20T08:30:41.439Z,11.9
2017-04-20T08:31:43.289Z,11.6
2017-04-20T08:32:45.188Z,11.7
2017-04-20T08:33:46.998Z,11.9
2017-04-20T08:34:48.929Z,12
2017-04-20T08:35:50.797Z,11.8
2017-04-20T08:36:52.604Z,12
2017-04-20T08:37:54.411Z,11.8
2017-04-20T08:38:56.247Z,11.8
2017-04-20T08:39:58.136Z,12
2017-04-20T08:41:00.139Z,12.3
2017-04-20T08:42:01.949Z,12.6
2017-04-20T08:43:03.755Z,12.5
2017-04-20T08:44:05.555Z,12.3
2017-04-20T08:45:07.361Z,12.3
2017-04-20T08:46:09.549Z,12.3
2017-04-20T08:47:11.417Z,12.1
2017-04-20T08:48:13.322Z,12.1
2017-04-20T08:49:15.125Z,11.9
2017-04-20T08:50:16.930Z,12
2017-04-20T08:51:18.734Z,12.7
2017-04-20T08:52:20.549Z,12.1
2017-04-20T08:53:22.414Z,12.5
2017-04-20T08:54:24.317Z,12
2017-04-20T08:55:26.152Z,11.7
2017-04-20T08:56:28.304Z,11.7
2017-04-20T08:57:30.654Z,12
2017-04-20T08:58:32.669Z,12.9
2017-04-20T08:59:34.483Z,12.8
2017-04-20T09:00:36.291Z,12.9
2017-04-20T09:01:38.114Z,13.3
2017-04-20T09:02:39.915Z,13.3
2017-04-20T09:03:41.724Z,13.2
2017-04-20T09:04:43.532Z,13.7
2017-04-20T09:05:45.338Z,13.4
2017-04-20T09:06:47.531Z,13.7
2017-04-20T09:07:49.685Z,13.7
2017-04-20T09:08:51.639Z,13.4
2017-04-20T09:09:54.332Z,13.2
2017-04-20T09:10:56.219Z,13.6
2017-04-20T09:11:58.074Z,13.6
2017-04-20T09:13:00.198Z,13.2
2017-04-20T09:14:02.013Z,13.2
2017-04-20T09:15:03.864Z,13.2
2017-04-20T09:16:05.740Z,13.2
2017-04-20T09:17:07.546Z,13.6
2017-04-20T09:18:09.356Z,13.4
2017-04-20T09:19:11.164Z,13.3
2017-04-20T09:20:13.139Z,13.4
2017-04-20T09:21:15.313Z,13.5
2017-04-20T09:22:17.126Z,13.8
2017-04-20T09:23:18.979Z,13.7
2017-04-20T09:24:21.105Z,14
2017-04-20T09:25:22.921Z,14.2
2017-04-20T09:26:24.760Z,14.1
2017-04-20T09:27:26.964Z,14
2017-04-20T09:28:28.851Z,13.7
2017-04-20T09:29:31.049Z,13.5
2017-04-20T09:30:32.854Z,14.1
2017-04-20T09:31:34.797Z,14.5
2017-04-20T09:32:36.654Z,15
2017-04-20T09:33:38.467Z,14.5
2017-04-20T09:34:40.275Z,14
2017-04-20T09:35:42.088Z,14.2
2017-04-20T09:36:43.901Z,14.1
2017-04-20T09:37:45.915Z,14.2
2017-04-20T09:38:47.785Z,14
2017-04-20T09:39:49.609Z,14.4
2017-04-20T09:40:51.420Z,14.4
2017-04-20T09:41:53.234Z,15
2017-04-20T09:42:55.217Z,15
2017-04-20T09:43:57.027Z,14.9
2017-04-20T09:44:59.199Z,14.4
2017-04-20T09:46:01.009Z,13.8
2017-04-20T09:47:02.847Z,13.9
2017-04-20T09:48:04.859Z,14
2017-04-20T09:49:06.748Z,14
2017-04-20T09:50:08.559Z,13.9
2017-04-20T09:51:10.387Z,14.3
2017-04-20T09:52:12.194Z,14.4
2017-04-20T09:53:14.005Z,13.9
2017-04-20T09:54:16.724Z,13.2
2017-04-20T09:55:18.605Z,13.3
2017-04-20T09:56:20.410Z,13.1
2017-04-20T09:57:22.221Z,13.8
2017-04-20T09:58:24.461Z,14.1
2017-04-20T09:59:26.313Z,14.1
2017-04-20T10:00:28.130Z,14.2
2017-04-20T10:01:29.941Z,15
2017-04-20T10:02:31.755Z,15.4
2017-04-20T10:03:33.562Z,15.2
2017-04-20T10:04:35.892Z,14.9
2017-04-20T10:05:38.163Z,14.9
2017-04-20T10:06:39.970Z,14.4
2017-04-20T10:07:41.888Z,14.7
2017-04-20T10:08:44.033Z,14.5
2017-04-20T10:09:45.877Z,14.7
2017-04-20T10:10:48.588Z,14.6
2017-04-20T10:11:50.437Z,14.5
2017-04-20T10:12:52.250Z,15
2017-04-20T10:13:54.061Z,14.7
2017-04-20T10:14:55.879Z,14.2
2017-04-20T10:15:57.846Z,14
2017-04-20T10:16:59.682Z,13.9
2017-04-20T10:18:01.491Z,13.4
2017-04-20T10:19:03.299Z,13.5
2017-04-20T10:20:05.721Z,13.7
2017-04-20T10:21:07.588Z,13.6
2017-04-20T10:22:09.393Z,13.6
2017-04-20T10:23:11.211Z,13.6
2017-04-20T10:24:13.016Z,13.7
2017-04-20T10:25:14.822Z,13.3
2017-04-20T10:26:16.629Z,13.2
2017-04-20T10:27:18.899Z,13.4
2017-04-20T10:28:20.790Z,13.6
2017-04-20T10:29:22.651Z,13.5
2017-04-20T10:30:24.539Z,13.7
2017-04-20T10:31:26.345Z,14.1
2017-04-20T10:32:28.157Z,13.8
2017-04-20T10:33:29.963Z,13.7
2017-04-20T10:34:31.770Z,13.8
2017-04-20T10:35:33.579Z,14.6
2017-04-20T10:36:35.393Z,14.8
2017-04-20T10:37:37.200Z,14.8
2017-04-20T10:38:39.476Z,15
2017-04-20T10:39:41.840Z,14.7
2017-04-20T10:40:43.721Z,14.7
2017-04-20T10:41:45.530Z,13.9
2017-04-20T10:42:47.351Z,13.7
2017-04-20T10:43:49.158Z,14.8
2017-04-20T10:44:50.965Z,14.5
2017-04-20T10:45:52.777Z,14.7
2017-04-20T10:46:54.692Z,15.5
2017-04-20T10:47:57.171Z,15.1
2017-04-20T10:48:59.040Z,15.9
2017-04-20T10:50:00.906Z,15.5
2017-04-20T10:51:02.744Z,15.7
2017-04-20T10:52:04.655Z,15.4
2017-04-20T10:53:06.468Z,15
2017-04-20T10:54:08.318Z,15
2017-04-20T10:55:10.466Z,15.7
2017-04-20T10:56:12.302Z,15.6
2017-04-20T10:57:14.456Z,14.8
2017-04-20T10:58:16.311Z,14.7
2017-04-20T10:59:18.165Z,15.2
2017-04-20T11:00:20.006Z,15.3
2017-04-20T11:01:22.100Z,14.6
2017-04-20T11:02:23.970Z,14.4
2017-04-20T11:03:25.796Z,14.6
2017-04-20T11:04:27.606Z,14.6
2017-04-20T11:05:29.463Z,14.7
2017-04-20T11:06:31.353Z,14.1
2017-04-20T11:07:33.177Z,14.9
2017-04-20T11:08:34.985Z,14.7
2017-04-20T11:09:36.795Z,14.8
2017-04-20T11:10:38.605Z,15.1
2017-04-20T11:11:40.419Z,15.1
2017-04-20T11:12:42.743Z,14.9
2017-04-20T11:13:44.600Z,14.6
2017-04-20T11:14:46.635Z,14.5
2017-04-20T11:15:48.534Z,15
2017-04-20T11:16:50.730Z,14.8
2017-04-20T11:17:52.559Z,14.6
2017-04-20T11:18:54.367Z,14.8
2017-04-20T11:19:56.518Z,14.4
2017-04-20T11:20:58.352Z,14.3
2017-04-20T11:22:00.160Z,14.6
2017-04-20T11:23:01.967Z,14.9
2017-04-20T11:24:04.343Z,14.8
2017-04-20T11:25:06.722Z,14
2017-04-20T11:26:08.821Z,14.5
2017-04-20T11:27:10.669Z,14.5
2017-04-20T11:28:12.864Z,14.8
2017-04-20T11:29:14.670Z,14.7
2017-04-20T11:30:16.480Z,14.2
2017-04-20T11:31:18.651Z,14.3
2017-04-20T11:32:20.458Z,14.2
2017-04-20T11:33:22.286Z,14.2
2017-04-20T11:34:24.097Z,14.6
2017-04-20T11:35:26.297Z,14.2
2017-04-20T11:36:28.192Z,14
2017-04-20T11:37:30.017Z,14.1
2017-04-20T11:38:32.189Z,14.4
2017-04-20T11:39:33.998Z,14.3
2017-04-20T11:40:35.804Z,14.6
2017-04-20T11:41:37.606Z,14.8
2017-04-20T11:42:39.416Z,15.1
2017-04-20T11:43:41.238Z,15.3
2017-04-20T11:44:43.044Z,15.9
2017-04-20T11:45:44.852Z,15.2
2017-04-20T11:46:47.537Z,15
2017-04-20T11:47:49.480Z,14.8
2017-04-20T11:48:51.663Z,15.2
2017-04-20T11:49:53.526Z,14.9
2017-04-20T11:50:55.357Z,14.9
2017-04-20T11:51:57.177Z,15.2
2017-04-20T11:52:58.996Z,14.8
2017-04-20T11:54:01.141Z,14.7
2017-04-20T11:55:03.334Z,15.3
2017-04-20T11:56:05.140Z,14.4
2017-04-20T11:57:07.308Z,14.5
2017-04-20T11:58:09.116Z,14.6
2017-04-20T11:59:11.405Z,14.7
2017-04-20T12:00:13.316Z,14.7
2017-04-20T12:01:15.474Z,14.2
2017-04-20T12:02:17.301Z,14.2
2017-04-20T12:03:19.120Z,14.2
2017-04-20T12:04:21.298Z,14.4
2017-04-20T12:05:23.413Z,14.6
2017-04-20T12:06:25.280Z,15.1
2017-04-20T12:07:27.139Z,15.5
2017-04-20T12:08:29.040Z,16.4
2017-04-20T12:09:30.935Z,15.8
2017-04-20T12:10:32.832Z,15.9
2017-04-20T12:11:35.571Z,15.2
2017-04-20T12:12:38.562Z,15.8
2017-04-20T12:13:41.506Z,15.6
2017-04-20T12:14:43.316Z,16.3
2017-04-20T12:15:45.219Z,16.9
2017-04-20T12:16:47.030Z,17
2017-04-20T12:17:50.105Z,16.6
2017-04-20T12:18:52.698Z,16.8
2017-04-20T12:19:55.716Z,16.4
2017-04-20T12:20:59.760Z,15.7
2017-04-20T12:22:04.060Z,15.8
2017-04-20T12:23:07.901Z,15.9
2017-04-20T12:24:10.563Z,15.3
2017-04-20T12:25:15.355Z,15.6
2017-04-20T12:26:17.953Z,15.9
2017-04-20T12:27:20.670Z,15.8
2017-04-20T12:28:22.888Z,15.8
2017-04-20T12:29:25.992Z,15.8
2017-04-20T12:30:28.967Z,15.5
2017-04-20T12:31:32.453Z,15.5
2017-04-20T12:32:35.420Z,15.7
2017-04-20T12:33:37.281Z,15.2
2017-04-20T12:34:39.090Z,15.6
2017-04-20T12:35:41.119Z,15.3
2017-04-20T12:36:42.933Z,15.5
2017-04-20T12:37:44.791Z,15.5
2017-04-20T12:38:46.636Z,16.3
2017-04-20T12:39:48.452Z,16.6
2017-04-20T12:40:50.254Z,16.6
2017-04-20T12:41:52.064Z,16.2
2017-04-20T12:42:53.888Z,17.1
2017-04-20T12:43:55.789Z,18
2017-04-20T12:44:58.035Z,17.6
2017-04-20T12:45:59.900Z,17.7
2017-04-20T12:47:01.849Z,16.9
2017-04-20T12:48:04.018Z,16.2
2017-04-20T12:49:05.876Z,16.4
2017-04-20T12:50:07.771Z,16.3
2017-04-20T12:51:09.579Z,16.4
2017-04-20T12:52:11.394Z,17.2
2017-04-20T12:53:13.540Z,16.5
2017-04-20T12:54:15.369Z,16.3
2017-04-20T12:55:17.186Z,16.4
2017-04-20T12:56:19.003Z,16.4
2017-04-20T12:57:21.158Z,16.4
2017-04-20T12:58:23.688Z,16.5
2017-04-20T12:59:25.541Z,16.7
2017-04-20T13:00:27.356Z,17
2017-04-20T13:01:29.167Z,16
2017-04-20T13:02:30.973Z,16.6
2017-04-20T13:03:32.787Z,16.5
2017-04-20T13:04:35.306Z,17
2017-04-20T13:05:37.128Z,16.9
2017-04-20T13:06:38.938Z,16.4
2017-04-20T13:07:40.770Z,16.1
2017-04-20T13:08:42.580Z,16.8
2017-04-20T13:09:44.785Z,16.9
2017-04-20T13:10:46.751Z,16.8
2017-04-20T13:11:48.557Z,16.6
2017-04-20T13:12:50.472Z,16.9
2017-04-20T13:13:52.286Z,17.2
2017-04-20T13:14:54.432Z,17
2017-04-20T13:15:56.271Z,17
2017-04-20T13:16:58.082Z,17.3
2017-04-20T13:17:59.895Z,17.7
2017-04-20T13:19:01.708Z,18.2
2017-04-20T13:20:04.234Z,18.5
2017-04-20T13:21:06.125Z,17.9
2017-04-20T13:22:08.337Z,18
2017-04-20T13:23:10.354Z,18.8
2017-04-20T13:24:12.222Z,17.8
2017-04-20T13:25:14.031Z,17.8
2017-04-20T13:26:15.846Z,18
2017-04-20T13:27:17.658Z,18.6
2017-04-20T13:28:19.472Z,17.7
2017-04-20T13:29:21.880Z,17.4
2017-04-20T13:30:24.098Z,17.5
2017-04-20T13:31:25.974Z,16.9
2017-04-20T13:32:27.798Z,16.5
2017-04-20T13:33:29.650Z,16.9
2017-04-20T13:34:31.551Z,16.8
2017-04-20T13:35:33.366Z,17.2
2017-04-20T13:36:35.178Z,16.8
2017-04-20T13:37:37.001Z,17.1
2017-04-20T13:38:38.855Z,17.1
2017-04-20T13:39:40.755Z,17.2
2017-04-20T13:40:42.570Z,18
2017-04-20T13:41:44.386Z,18.2
2017-04-20T13:42:46.402Z,17.8
2017-04-20T13:43:48.619Z,17.7
2017-04-20T13:44:50.500Z,17.9
2017-04-20T13:45:52.311Z,17.8
2017-04-20T13:46:54.126Z,17.4
2017-04-20T13:47:55.944Z,17.1
2017-04-20T13:48:57.760Z,16.6
2017-04-20T13:49:59.680Z,16.4
2017-04-20T13:51:01.888Z,16.2
2017-04-20T13:52:03.699Z,16.5
2017-04-20T13:53:05.554Z,16.5
2017-04-20T13:54:07.513Z,17.4
2017-04-20T13:55:09.680Z,17.3
2017-04-20T13:56:11.542Z,17.3
2017-04-20T13:57:13.433Z,17.1
2017-04-20T13:58:15.247Z,17.4
2017-04-20T13:59:17.059Z,16.9
2017-04-20T14:00:19.210Z,17.2
2017-04-20T14:01:21.033Z,16.9
2017-04-20T14:02:22.845Z,16.9
2017-04-20T14:03:24.664Z,16.3
2017-04-20T14:04:26.644Z,16.7
2017-04-20T14:05:28.486Z,16.9